createdAt,value
2018-08-28T00:00:01.485Z,93.90
2018-08-28T00:02:31.117Z,93.80
2018-08-28T00:05:01.383Z,93.90
2018-08-28T00:07:30.017Z,93.90
2018-08-28T00:09:58.660Z,93.90
2018-08-28T00:12:27.582Z,93.90
2018-08-28T00:14:56.246Z,93.80
2018-08-28T00:17:24.918Z,93.80
2018-08-28T00:19:53.940Z,93.80
2018-08-28T00:22:22.600Z,93.80
2018-08-28T00:24:51.193Z,93.80
2018-08-28T00:27:19.869Z,93.60
2018-08-28T00:29:48.685Z,93.80
2018-08-28T00:32:17.386Z,94.10
2018-08-28T00:34:46.021Z,94.00
2018-08-28T00:37:14.664Z,94.20
2018-08-28T00:39:43.259Z,94.10
2018-08-28T00:42:12.001Z,94.20
2018-08-28T00:44:40.604Z,94.10
2018-08-28T00:47:09.208Z,94.10
2018-08-28T00:49:37.857Z,94.30
2018-08-28T00:52:06.939Z,94.30
2018-08-28T00:54:35.562Z,94.60
2018-08-28T00:57:04.225Z,94.40
2018-08-28T00:59:32.840Z,94.50
2018-08-28T01:02:01.433Z,94.60
2018-08-28T01:04:30.076Z,94.40
2018-08-28T01:06:58.758Z,94.30
2018-08-28T01:09:27.444Z,94.50
2018-08-28T01:11:56.141Z,94.50
2018-08-28T01:14:24.844Z,94.50
2018-08-28T01:16:53.457Z,94.50
2018-08-28T01:19:22.110Z,94.50
2018-08-28T01:21:50.810Z,94.40
2018-08-28T01:24:19.435Z,94.60
2018-08-28T01:26:48.048Z,94.50
2018-08-28T01:29:16.669Z,94.40
2018-08-28T01:31:45.398Z,94.50
2018-08-28T01:34:14.025Z,94.50
2018-08-28T01:36:42.659Z,94.70
2018-08-28T01:39:11.282Z,94.80
2018-08-28T01:41:39.864Z,94.90
2018-08-28T01:44:08.500Z,95.00
2018-08-28T01:46:37.090Z,95.00
2018-08-28T01:49:06.046Z,95.00
2018-08-28T01:51:34.720Z,95.10
2018-08-28T01:54:03.338Z,95.00
2018-08-28T01:56:31.927Z,95.10
2018-08-28T01:59:00.514Z,95.10
2018-08-28T02:01:29.171Z,95.10
2018-08-28T02:03:57.753Z,95.00
2018-08-28T02:06:26.393Z,95.20
2018-08-28T02:08:55.057Z,95.20
2018-08-28T02:11:23.690Z,95.20
2018-08-28T02:13:52.376Z,95.30
2018-08-28T02:16:21.015Z,95.40
2018-08-28T02:18:49.678Z,95.50
2018-08-28T02:21:18.314Z,95.60
2018-08-28T02:23:46.941Z,95.60
2018-08-28T02:26:15.535Z,95.70
2018-08-28T02:28:44.172Z,95.90
2018-08-28T02:31:12.835Z,96.00
2018-08-28T02:33:41.549Z,95.80
2018-08-28T02:36:10.196Z,96.00
2018-08-28T02:38:38.790Z,95.90
2018-08-28T02:41:07.493Z,96.00
2018-08-28T02:43:36.102Z,96.00
2018-08-28T02:46:04.770Z,95.90
2018-08-28T02:48:33.356Z,95.90
2018-08-28T02:52:04.967Z,96.00
2018-08-28T02:54:33.548Z,95.90
2018-08-28T02:57:02.183Z,96.10
2018-08-28T02:59:30.811Z,96.10
2018-08-28T03:01:59.441Z,96.20
2018-08-28T03:04:28.022Z,96.20
2018-08-28T03:06:56.625Z,96.20
2018-08-28T03:09:25.272Z,96.30
2018-08-28T03:11:53.979Z,96.20
2018-08-28T03:14:22.678Z,96.20
2018-08-28T03:16:51.318Z,96.20
2018-08-28T03:19:20.067Z,96.30
2018-08-28T03:21:48.769Z,96.30
2018-08-28T03:24:17.478Z,96.30
2018-08-28T03:26:46.113Z,96.40
2018-08-28T03:29:15.003Z,96.50
2018-08-28T03:31:43.492Z,96.50
2018-08-28T03:34:12.188Z,96.60
2018-08-28T03:36:40.840Z,96.70
2018-08-28T03:39:09.471Z,96.70
2018-08-28T03:41:38.122Z,97.10
2018-08-28T03:44:06.723Z,96.90
2018-08-28T03:46:35.364Z,96.80
2018-08-28T03:49:03.975Z,96.90
2018-08-28T03:51:32.634Z,96.90
2018-08-28T03:54:01.279Z,97.00
2018-08-28T03:56:29.915Z,97.00
2018-08-28T03:58:58.556Z,97.10
2018-08-28T04:01:27.160Z,97.20
2018-08-28T04:03:55.900Z,97.20
2018-08-28T04:06:24.577Z,97.20
2018-08-28T04:08:53.232Z,97.20
2018-08-28T04:11:21.870Z,97.30
2018-08-28T04:13:50.465Z,97.30
2018-08-28T04:16:19.113Z,97.30
2018-08-28T04:18:47.780Z,97.30
2018-08-28T04:21:16.450Z,97.40
2018-08-28T04:23:45.027Z,97.40
2018-08-28T04:26:13.643Z,97.40
2018-08-28T04:28:42.224Z,97.40
2018-08-28T04:31:10.869Z,97.40
2018-08-28T04:33:39.457Z,97.40
2018-08-28T04:36:08.102Z,97.50
2018-08-28T04:38:36.709Z,97.50
2018-08-28T04:41:05.533Z,97.50
2018-08-28T04:43:34.141Z,97.60
2018-08-28T04:46:02.714Z,97.60
2018-08-28T04:48:31.525Z,97.70
2018-08-28T04:51:00.127Z,97.70
2018-08-28T04:53:28.783Z,97.80
2018-08-28T04:55:57.418Z,97.80
2018-08-28T04:58:26.100Z,97.90
2018-08-28T05:00:54.714Z,97.90
2018-08-28T05:03:23.390Z,98.00
2018-08-28T05:05:52.066Z,97.90
2018-08-28T05:08:20.684Z,97.90
2018-08-28T05:10:49.382Z,98.00
2018-08-28T05:13:17.995Z,97.90
2018-08-28T05:15:46.626Z,98.00
2018-08-28T05:18:15.304Z,98.00
2018-08-28T05:20:43.973Z,97.90
2018-08-28T05:23:12.600Z,98.00
2018-08-28T05:25:41.226Z,98.00
2018-08-28T05:28:09.935Z,98.00
2018-08-28T05:30:38.725Z,97.90
2018-08-28T05:33:07.255Z,97.90
2018-08-28T05:35:35.910Z,98.00
2018-08-28T05:38:05.032Z,98.00
2018-08-28T05:40:33.836Z,97.90
2018-08-28T05:43:02.848Z,97.80
2018-08-28T05:45:31.816Z,98.00
2018-08-28T05:48:01.148Z,97.50
2018-08-28T05:50:30.176Z,97.50
2018-08-28T05:52:59.060Z,97.50
2018-08-28T05:55:28.236Z,97.40
2018-08-28T05:57:57.137Z,97.30
2018-08-28T06:00:26.416Z,97.40
2018-08-28T06:02:55.700Z,97.30
2018-08-28T06:05:25.136Z,97.30
2018-08-28T06:07:54.576Z,97.10
2018-08-28T06:10:23.736Z,97.00
2018-08-28T06:12:53.056Z,96.90
2018-08-28T06:15:22.376Z,96.80
2018-08-28T06:17:51.776Z,96.80
2018-08-28T06:20:20.896Z,96.90
2018-08-28T06:22:49.873Z,96.60
2018-08-28T06:25:18.956Z,96.70
2018-08-28T06:27:47.916Z,96.50
2018-08-28T06:30:16.976Z,96.40
2018-08-28T06:32:46.037Z,96.20
2018-08-28T06:35:14.937Z,96.00
2018-08-28T06:37:44.839Z,96.10
2018-08-28T06:40:13.503Z,96.30
2018-08-28T06:42:42.114Z,96.30
2018-08-28T06:45:10.746Z,96.10
2018-08-28T06:47:39.365Z,96.00
2018-08-28T06:50:08.929Z,96.00
2018-08-28T06:52:37.964Z,95.90
2018-08-28T06:55:07.078Z,96.00
2018-08-28T06:57:35.706Z,96.20
2018-08-28T07:00:04.451Z,96.00
2018-08-28T07:02:33.249Z,95.70
2018-08-28T07:05:01.854Z,95.70
2018-08-28T07:07:31.749Z,95.80
2018-08-28T07:10:00.372Z,95.60
2018-08-28T07:12:29.114Z,95.50
2018-08-28T07:14:57.848Z,95.40
2018-08-28T07:17:26.446Z,95.40
2018-08-28T07:19:55.077Z,95.10
2018-08-28T07:22:24.302Z,95.00
2018-08-28T07:24:52.970Z,94.80
2018-08-28T07:27:21.551Z,94.80
2018-08-28T07:29:50.186Z,94.60
2018-08-28T07:32:18.786Z,94.40
2018-08-28T07:34:47.423Z,94.30
2018-08-28T07:37:16.069Z,94.30
2018-08-28T07:39:45.360Z,94.30
2018-08-28T07:42:14.257Z,94.10
2018-08-28T07:44:42.871Z,94.10
2018-08-28T07:47:11.539Z,94.20
2018-08-28T07:49:40.579Z,93.80
2018-08-28T07:52:09.270Z,93.80
2018-08-28T07:54:37.925Z,93.60
2018-08-28T07:57:07.171Z,93.30
2018-08-28T07:59:36.889Z,93.10
2018-08-28T08:02:06.678Z,92.90
2018-08-28T08:04:35.632Z,92.40
2018-08-28T08:07:04.437Z,92.30
2018-08-28T08:09:33.100Z,92.10
2018-08-28T08:12:01.826Z,91.70
2018-08-28T08:14:30.556Z,91.40
2018-08-28T08:16:59.274Z,91.20
2018-08-28T08:19:27.955Z,90.20
2018-08-28T08:21:57.294Z,88.80
2018-08-28T08:24:25.961Z,87.00
2018-08-28T08:26:54.984Z,84.40
2018-08-28T08:29:23.582Z,83.20
2018-08-28T08:31:52.211Z,81.60
2018-08-28T08:34:20.811Z,81.00
2018-08-28T08:36:49.538Z,80.20
2018-08-28T08:39:18.164Z,78.30
2018-08-28T08:41:46.820Z,76.90
2018-08-28T08:44:15.470Z,77.30
2018-08-28T08:46:44.127Z,76.30
2018-08-28T08:49:12.721Z,76.00
2018-08-28T08:51:41.296Z,76.70
2018-08-28T08:54:10.018Z,75.50
2018-08-28T08:56:39.351Z,73.40
2018-08-28T08:59:08.926Z,72.00
2018-08-28T09:01:37.606Z,72.80
2018-08-28T09:04:06.750Z,73.40
2018-08-28T09:06:35.395Z,71.50
2018-08-28T09:09:04.962Z,71.40
2018-08-28T09:11:33.758Z,72.70
2018-08-28T09:14:02.338Z,74.20
2018-08-28T09:16:31.007Z,73.70
2018-08-28T09:18:59.691Z,74.40
2018-08-28T09:21:28.284Z,74.90
2018-08-28T09:23:57.654Z,74.50
2018-08-28T09:26:26.270Z,74.40
2018-08-28T09:28:54.879Z,73.40
2018-08-28T09:31:23.492Z,73.90
2018-08-28T09:33:52.175Z,73.40
2018-08-28T09:36:20.800Z,72.20
2018-08-28T09:38:49.491Z,71.80
2018-08-28T09:41:18.053Z,69.70
2018-08-28T09:43:46.814Z,69.40
2018-08-28T09:46:15.595Z,70.90
2018-08-28T09:48:44.377Z,70.60
2018-08-28T09:51:14.507Z,70.90
2018-08-28T09:53:44.235Z,70.20
2018-08-28T09:56:13.317Z,72.30
2018-08-28T09:58:42.857Z,72.40
2018-08-28T10:01:17.330Z,64.80
2018-08-28T10:03:46.766Z,61.20
2018-08-28T10:06:16.275Z,62.40
2018-08-28T10:08:45.253Z,62.30
2018-08-28T10:11:14.284Z,62.70
2018-08-28T10:13:43.814Z,65.10
2018-08-28T10:16:13.190Z,61.40
2018-08-28T10:18:43.398Z,63.40
2018-08-28T10:21:12.615Z,61.20
2018-08-28T10:23:41.853Z,59.70
2018-08-28T10:26:11.194Z,58.70
2018-08-28T10:28:40.233Z,60.70
2018-08-28T10:31:08.837Z,57.80
2018-08-28T10:33:37.465Z,57.10
2018-08-28T10:36:06.160Z,57.10
2018-08-28T10:38:34.806Z,57.40
2018-08-28T10:41:03.473Z,57.90
2018-08-28T10:43:32.197Z,56.30
2018-08-28T10:46:00.985Z,57.10
2018-08-28T10:48:29.796Z,58.00
2018-08-28T10:50:58.491Z,58.30
2018-08-28T10:53:27.211Z,59.10
2018-08-28T10:55:55.904Z,58.70
2018-08-28T10:58:24.580Z,57.60
2018-08-28T11:00:53.272Z,57.60
2018-08-28T11:03:22.214Z,57.80
2018-08-28T11:05:50.904Z,59.00
2018-08-28T11:08:19.584Z,58.40
2018-08-28T11:10:48.266Z,58.60
2018-08-28T11:13:16.905Z,58.80
2018-08-28T11:15:45.577Z,59.40
2018-08-28T11:18:14.270Z,54.80
2018-08-28T11:20:49.337Z,55.50
2018-08-28T11:23:17.993Z,56.20
2018-08-28T11:25:46.687Z,57.00
2018-08-28T11:28:15.374Z,56.50
2018-08-28T11:30:44.119Z,57.20
2018-08-28T11:33:12.839Z,56.40
2018-08-28T11:35:41.505Z,56.50
2018-08-28T11:38:10.184Z,56.80
2018-08-28T11:40:38.828Z,56.40
2018-08-28T11:43:07.520Z,56.70
2018-08-28T11:45:36.170Z,57.20
2018-08-28T11:48:05.291Z,57.10
2018-08-28T11:50:33.953Z,56.90
2018-08-28T11:53:02.663Z,57.00
2018-08-28T11:55:31.283Z,56.80
2018-08-28T11:57:59.942Z,57.00
2018-08-28T12:00:28.642Z,56.80
2018-08-28T12:02:57.262Z,57.70
2018-08-28T12:05:26.012Z,58.40
2018-08-28T12:07:54.632Z,56.50
2018-08-28T12:10:23.329Z,57.30
2018-08-28T12:12:52.010Z,57.40
2018-08-28T12:15:20.709Z,56.90
2018-08-28T12:17:49.349Z,57.30
2018-08-28T12:20:18.103Z,57.40
2018-08-28T12:22:46.780Z,60.00
2018-08-28T12:25:15.428Z,56.30
2018-08-28T12:27:44.114Z,56.90
2018-08-28T12:30:12.831Z,59.10
2018-08-28T12:32:41.533Z,58.00
2018-08-28T12:35:10.282Z,57.40
2018-08-28T12:37:38.903Z,56.90
2018-08-28T12:40:07.637Z,57.70
2018-08-28T12:42:36.324Z,58.00
2018-08-28T12:45:05.476Z,57.00
2018-08-28T12:47:34.263Z,58.20
2018-08-28T12:50:02.956Z,58.30
2018-08-28T12:52:31.642Z,59.20
2018-08-28T12:55:00.346Z,59.60
2018-08-28T12:57:28.989Z,59.70
2018-08-28T12:59:57.772Z,59.30
2018-08-28T13:02:26.476Z,58.20
2018-08-28T13:04:55.142Z,58.50
2018-08-28T13:07:23.843Z,57.50
2018-08-28T13:09:52.510Z,58.30
2018-08-28T13:12:21.143Z,57.50
2018-08-28T13:14:49.975Z,57.80
2018-08-28T13:17:18.554Z,57.90
2018-08-28T13:19:47.286Z,58.00
2018-08-28T13:22:15.901Z,58.90
2018-08-28T13:24:44.548Z,58.20
2018-08-28T13:27:13.170Z,61.40
2018-08-28T13:29:41.834Z,57.20
2018-08-28T13:32:10.443Z,56.50
2018-08-28T13:34:39.042Z,56.80
2018-08-28T13:37:07.694Z,56.80
2018-08-28T13:39:36.305Z,56.00
2018-08-28T13:42:05.004Z,56.30
2018-08-28T13:44:33.599Z,57.00
2018-08-28T13:47:02.303Z,56.90
2018-08-28T13:49:30.884Z,56.50
2018-08-28T13:51:59.588Z,58.30
2018-08-28T13:54:28.474Z,57.10
2018-08-28T13:56:56.847Z,56.50
2018-08-28T13:59:25.498Z,56.30
2018-08-28T14:01:54.139Z,56.60
2018-08-28T14:04:22.748Z,57.40
2018-08-28T14:06:51.385Z,57.50
2018-08-28T14:09:20.044Z,57.50
2018-08-28T14:11:48.688Z,57.20
2018-08-28T14:14:17.314Z,56.30
2018-08-28T14:16:45.912Z,57.50
2018-08-28T14:19:14.546Z,56.20
2018-08-28T14:21:43.173Z,56.50
2018-08-28T14:24:11.852Z,56.20
2018-08-28T14:26:40.535Z,54.80
2018-08-28T14:29:09.280Z,55.60
2018-08-28T14:31:37.819Z,55.60
2018-08-28T14:34:06.470Z,55.60
2018-08-28T14:36:35.106Z,55.50
2018-08-28T14:39:04.559Z,55.40
2018-08-28T14:41:33.179Z,55.80
2018-08-28T14:44:01.887Z,55.80
2018-08-28T14:46:30.477Z,54.80
2018-08-28T14:48:59.116Z,55.50
2018-08-28T14:51:27.705Z,55.70
2018-08-28T14:53:56.356Z,56.10
2018-08-28T14:56:25.151Z,55.20
2018-08-28T14:58:53.678Z,54.70
2018-08-28T15:01:22.302Z,55.20
2018-08-28T15:03:50.959Z,54.50
2018-08-28T15:06:19.750Z,54.90
2018-08-28T15:08:48.354Z,54.60
2018-08-28T15:11:17.011Z,55.60
2018-08-28T15:13:45.666Z,53.10
2018-08-28T15:16:14.402Z,54.00
2018-08-28T15:18:43.066Z,54.10
2018-08-28T15:21:11.662Z,54.40
2018-08-28T15:23:40.371Z,53.10
2018-08-28T15:26:09.011Z,52.80
2018-08-28T15:28:37.705Z,52.90
2018-08-28T15:31:06.603Z,54.20
2018-08-28T15:33:35.320Z,53.00
2018-08-28T15:36:03.960Z,53.10
2018-08-28T15:38:32.565Z,53.40
2018-08-28T15:41:01.218Z,53.70
2018-08-28T15:43:29.799Z,53.90
2018-08-28T15:45:58.406Z,52.90
2018-08-28T15:48:27.030Z,52.90
2018-08-28T15:50:55.694Z,52.70
2018-08-28T15:53:24.314Z,53.10
2018-08-28T15:55:52.972Z,52.50
2018-08-28T15:58:21.584Z,53.10
2018-08-28T16:00:50.167Z,52.60
2018-08-28T16:03:18.821Z,52.60
2018-08-28T16:05:47.438Z,52.90
2018-08-28T16:08:16.092Z,53.20
2018-08-28T16:10:44.741Z,53.10
2018-08-28T16:13:13.340Z,52.60
2018-08-28T16:15:41.983Z,52.20
2018-08-28T16:18:11.497Z,53.10
2018-08-28T16:20:40.119Z,53.30
2018-08-28T16:23:12.912Z,53.40
2018-08-28T16:25:41.686Z,53.40
2018-08-28T16:28:10.276Z,53.80
2018-08-28T16:30:38.877Z,54.40
2018-08-28T16:33:08.134Z,53.50
2018-08-28T16:35:36.744Z,54.90
2018-08-28T16:38:05.386Z,54.00
2018-08-28T16:40:33.970Z,53.60
2018-08-28T16:43:02.668Z,54.90
2018-08-28T16:45:31.270Z,54.50
2018-08-28T16:47:59.929Z,55.00
2018-08-28T16:50:28.535Z,55.70
2018-08-28T16:52:57.163Z,55.70
2018-08-28T16:55:25.750Z,56.70
2018-08-28T16:57:54.374Z,57.10
2018-08-28T17:00:22.975Z,57.00
2018-08-28T17:02:51.581Z,57.70
2018-08-28T17:05:20.203Z,57.60
2018-08-28T17:07:48.820Z,59.40
2018-08-28T17:10:17.452Z,59.00
2018-08-28T17:12:46.159Z,59.00
2018-08-28T17:15:15.548Z,59.00
2018-08-28T17:17:44.568Z,61.40
2018-08-28T17:20:13.239Z,60.70
2018-08-28T17:22:42.015Z,61.50
2018-08-28T17:25:10.775Z,62.40
2018-08-28T17:27:39.443Z,62.90
2018-08-28T17:30:08.139Z,63.60
2018-08-28T17:32:36.763Z,64.60
2018-08-28T17:35:05.403Z,63.90
2018-08-28T17:37:34.128Z,66.20
2018-08-28T17:40:02.695Z,65.60
2018-08-28T17:42:31.356Z,67.30
2018-08-28T17:44:59.936Z,68.90
2018-08-28T17:47:28.653Z,68.00
2018-08-28T17:49:57.323Z,69.70
2018-08-28T17:52:25.951Z,70.40
2018-08-28T17:54:54.610Z,72.30
2018-08-28T17:57:23.257Z,72.70
2018-08-28T17:59:51.976Z,73.90
2018-08-28T18:02:20.643Z,75.00
2018-08-28T18:04:49.305Z,74.10
2018-08-28T18:07:17.995Z,74.00
2018-08-28T18:09:46.684Z,75.70
2018-08-28T18:12:15.325Z,77.00
2018-08-28T18:14:44.012Z,77.90
2018-08-28T18:17:12.695Z,79.90
2018-08-28T18:19:41.352Z,80.70
2018-08-28T18:22:10.034Z,80.20
2018-08-28T18:24:38.682Z,81.70
2018-08-28T18:27:07.317Z,83.10
2018-08-28T18:29:35.912Z,84.00
2018-08-28T18:32:04.644Z,83.80
2018-08-28T18:34:33.466Z,82.30
2018-08-28T18:37:02.167Z,81.60
2018-08-28T18:39:31.083Z,83.00
2018-08-28T18:41:59.839Z,83.30
2018-08-28T18:44:28.438Z,84.40
2018-08-28T18:46:58.489Z,84.40
2018-08-28T18:49:27.126Z,85.10
2018-08-28T18:51:56.153Z,85.10
2018-08-28T18:54:24.782Z,85.80
2018-08-28T18:56:53.373Z,86.20
2018-08-28T18:59:22.022Z,87.20
2018-08-28T19:01:50.664Z,87.90
2018-08-28T19:04:19.496Z,88.60
2018-08-28T19:06:48.473Z,89.10
2018-08-28T19:09:17.300Z,89.50
2018-08-28T19:11:46.350Z,89.70
2018-08-28T19:14:15.185Z,90.40
2018-08-28T19:16:43.867Z,90.50
2018-08-28T19:19:12.778Z,90.90
2018-08-28T19:21:41.649Z,91.40
2018-08-28T19:24:10.251Z,91.80
2018-08-28T19:26:38.900Z,91.50
2018-08-28T19:29:07.538Z,91.70
2018-08-28T19:31:36.190Z,91.80
2018-08-28T19:34:05.106Z,92.00
2018-08-28T19:36:33.747Z,92.10
2018-08-28T19:39:02.524Z,92.20
2018-08-28T19:41:31.434Z,92.40
2018-08-28T19:44:00.116Z,92.20
2018-08-28T19:46:28.657Z,92.60
2018-08-28T19:48:57.425Z,92.60
2018-08-28T19:51:26.122Z,92.60
2018-08-28T19:53:54.745Z,92.60
2018-08-28T19:56:23.332Z,92.40
2018-08-28T19:58:52.139Z,92.80
2018-08-28T20:01:20.731Z,92.80
2018-08-28T20:03:49.365Z,93.10
2018-08-28T20:06:18.570Z,93.00
2018-08-28T20:08:47.208Z,93.20
2018-08-28T20:11:15.821Z,93.50
2018-08-28T20:13:44.436Z,93.60
2018-08-28T20:16:13.166Z,93.30
2018-08-28T20:18:42.066Z,93.50
2018-08-28T20:21:11.188Z,93.60
2018-08-28T20:23:40.291Z,93.80
2018-08-28T20:26:08.999Z,94.20
2018-08-28T20:28:38.301Z,94.30
2018-08-28T20:31:07.331Z,94.30
2018-08-28T20:33:37.383Z,94.70
2018-08-28T20:36:06.708Z,94.80
2018-08-28T20:38:35.690Z,95.00
2018-08-28T20:41:04.783Z,95.00
2018-08-28T20:43:34.080Z,95.20
2018-08-28T20:46:02.696Z,95.20
2018-08-28T20:48:32.056Z,95.10
2018-08-28T20:51:00.741Z,95.10
2018-08-28T20:53:30.657Z,95.40
2018-08-28T20:55:59.967Z,95.50
2018-08-28T20:58:29.447Z,95.50
2018-08-28T21:00:59.069Z,95.70
2018-08-28T21:03:28.210Z,95.90
2018-08-28T21:05:57.101Z,96.10
2018-08-28T21:08:26.172Z,96.30
2018-08-28T21:10:55.232Z,96.40
2018-08-28T21:13:24.057Z,96.40
2018-08-28T21:15:53.375Z,96.40
2018-08-28T21:18:22.248Z,96.40
2018-08-28T21:20:51.499Z,96.50
2018-08-28T21:23:20.228Z,96.90
2018-08-28T21:25:49.118Z,97.00
2018-08-28T21:28:18.618Z,97.40
2018-08-28T21:30:48.829Z,96.40
2018-08-28T21:33:17.525Z,96.80
2018-08-28T21:35:46.251Z,97.10
2018-08-28T21:38:14.891Z,97.40
2018-08-28T21:40:43.566Z,97.90
2018-08-28T21:43:12.243Z,98.20
2018-08-28T21:45:41.016Z,98.20
2018-08-28T21:48:09.733Z,98.50
2018-08-28T21:50:38.406Z,98.80
2018-08-28T21:53:07.242Z,99.00
2018-08-28T21:55:35.943Z,99.00
2018-08-28T21:58:04.622Z,99.10
2018-08-28T22:00:33.573Z,99.70
2018-08-28T22:03:02.252Z,99.60
2018-08-28T22:05:32.196Z,99.80
2018-08-28T22:08:02.259Z,99.90
2018-08-28T22:10:31.577Z,99.90
2018-08-28T22:13:00.286Z,99.90
2018-08-28T22:15:28.932Z,99.80
2018-08-28T22:17:57.591Z,98.40
2018-08-28T22:20:26.260Z,98.70
2018-08-28T22:22:54.861Z,99.00
2018-08-28T22:25:23.732Z,99.90
2018-08-28T22:27:52.327Z,99.70
2018-08-28T22:30:20.950Z,99.90
2018-08-28T22:32:49.626Z,99.90
2018-08-28T22:35:18.231Z,99.90
2018-08-28T22:37:46.909Z,99.90
2018-08-28T22:40:15.502Z,99.90
2018-08-28T22:42:44.188Z,99.90
2018-08-28T22:45:12.787Z,99.90
2018-08-28T22:47:41.424Z,99.90
2018-08-28T22:50:10.042Z,99.90
2018-08-28T22:52:38.687Z,99.90
2018-08-28T22:55:07.349Z,99.90
2018-08-28T22:57:35.952Z,99.90
2018-08-28T23:00:04.734Z,99.90
2018-08-28T23:02:33.389Z,99.90
2018-08-28T23:05:01.985Z,99.90
2018-08-28T23:07:30.670Z,99.90
2018-08-28T23:09:59.324Z,99.90
2018-08-28T23:12:27.990Z,99.90
2018-08-28T23:14:56.574Z,99.90
2018-08-28T23:17:25.217Z,99.90
2018-08-28T23:19:53.815Z,99.90
2018-08-28T23:22:22.455Z,99.90
2018-08-28T23:24:51.061Z,99.90
2018-08-28T23:27:19.695Z,99.90
2018-08-28T23:29:48.288Z,99.90
2018-08-28T23:32:16.913Z,99.90
2018-08-28T23:34:45.514Z,99.90
2018-08-28T23:37:17.101Z,99.90
2018-08-28T23:39:45.737Z,99.90
2018-08-28T23:42:14.338Z,99.90
2018-08-28T23:44:42.965Z,99.90
2018-08-28T23:47:11.604Z,99.90
2018-08-28T23:49:40.238Z,99.90
2018-08-28T23:52:08.903Z,99.90
2018-08-28T23:54:37.549Z,99.90
2018-08-28T23:57:06.253Z,99.90
2018-08-28T23:59:34.906Z,99.90
